sensor_id;sensor_type;location;lat;lon;timestamp;temperature;humidity
36458;DHT22;22480;50.546;12.292;2023-06-26T00:01:15;17.10;99.90
36458;DHT22;22480;50.546;12.292;2023-06-26T00:03:41;17.20;99.90
36458;DHT22;22480;50.546;12.292;2023-06-26T00:06:07;17.30;99.90
36458;DHT22;22480;50.546;12.292;2023-06-26T00:08:32;17.50;99.90
36458;DHT22;22480;50.546;12.292;2023-06-26T00:10:58;17.60;99.90
36458;DHT22;22480;50.546;12.292;2023-06-26T00:13:24;17.80;99.90
36458;DHT22;22480;50.546;12.292;2023-06-26T00:15:50;17.90;99.90
36458;DHT22;22480;50.546;12.292;2023-06-26T00:18:16;18.00;99.90
36458;DHT22;22480;50.546;12.292;2023-06-26T00:20:42;18.10;99.90
36458;DHT22;22480;50.546;12.292;2023-06-26T00:23:08;18.10;99.90
36458;DHT22;22480;50.546;12.292;2023-06-26T00:25:34;18.00;99.90
36458;DHT22;22480;50.546;12.292;2023-06-26T00:27:59;18.00;99.90
36458;DHT22;22480;50.546;12.292;2023-06-26T00:30:25;17.90;99.90
36458;DHT22;22480;50.546;12.292;2023-06-26T00:32:51;17.90;99.90
36458;DHT22;22480;50.546;12.292;2023-06-26T00:35:17;17.90;99.90
36458;DHT22;22480;50.546;12.292;2023-06-26T00:37:44;17.90;99.90
36458;DHT22;22480;50.546;12.292;2023-06-26T00:40:10;17.80;99.90
36458;DHT22;22480;50.546;12.292;2023-06-26T00:42:36;17.80;99.90
36458;DHT22;22480;50.546;12.292;2023-06-26T00:45:01;17.90;99.90
36458;DHT22;22480;50.546;12.292;2023-06-26T00:47:29;17.90;99.90
36458;DHT22;22480;50.546;12.292;2023-06-26T00:49:55;17.90;99.90
36458;DHT22;22480;50.546;12.292;2023-06-26T00:52:21;17.90;99.90
36458;DHT22;22480;50.546;12.292;2023-06-26T00:54:50;17.90;99.90
36458;DHT22;22480;50.546;12.292;2023-06-26T00:57:17;17.90;99.90
36458;DHT22;22480;50.546;12.292;2023-06-26T00:59:43;17.90;99.90
36458;DHT22;22480;50.546;12.292;2023-06-26T01:02:08;18.00;99.90
36458;DHT22;22480;50.546;12.292;2023-06-26T01:04:35;18.10;99.90
36458;DHT22;22480;50.546;12.292;2023-06-26T01:07:02;18.10;99.90
36458;DHT22;22480;50.546;12.292;2023-06-26T01:09:28;18.00;99.90
36458;DHT22;22480;50.546;12.292;2023-06-26T01:11:55;18.00;99.90
36458;DHT22;22480;50.546;12.292;2023-06-26T01:14:21;18.00;99.90
36458;DHT22;22480;50.546;12.292;2023-06-26T01:16:47;17.90;99.90
36458;DHT22;22480;50.546;12.292;2023-06-26T01:19:27;17.80;99.90
36458;DHT22;22480;50.546;12.292;2023-06-26T01:22:02;17.70;99.90
36458;DHT22;22480;50.546;12.292;2023-06-26T01:24:45;17.60;99.90
36458;DHT22;22480;50.546;12.292;2023-06-26T01:27:18;17.40;99.90
36458;DHT22;22480;50.546;12.292;2023-06-26T01:29:45;17.30;99.90
36458;DHT22;22480;50.546;12.292;2023-06-26T01:32:12;17.20;99.90
36458;DHT22;22480;50.546;12.292;2023-06-26T01:34:37;17.10;99.90
36458;DHT22;22480;50.546;12.292;2023-06-26T01:37:03;17.00;99.90
36458;DHT22;22480;50.546;12.292;2023-06-26T01:39:29;16.90;99.90
36458;DHT22;22480;50.546;12.292;2023-06-26T01:41:55;16.90;99.90
36458;DHT22;22480;50.546;12.292;2023-06-26T01:44:28;16.80;99.90
36458;DHT22;22480;50.546;12.292;2023-06-26T01:46:59;16.70;99.90
36458;DHT22;22480;50.546;12.292;2023-06-26T01:54:37;16.50;99.90
36458;DHT22;22480;50.546;12.292;2023-06-26T01:57:04;16.50;99.90
36458;DHT22;22480;50.546;12.292;2023-06-26T01:59:32;16.50;99.90
36458;DHT22;22480;50.546;12.292;2023-06-26T02:02:01;16.40;99.90
36458;DHT22;22480;50.546;12.292;2023-06-26T02:04:27;16.40;99.90
36458;DHT22;22480;50.546;12.292;2023-06-26T02:06:52;16.40;99.90
36458;DHT22;22480;50.546;12.292;2023-06-26T02:09:18;16.30;99.90
36458;DHT22;22480;50.546;12.292;2023-06-26T02:11:45;16.30;99.90
36458;DHT22;22480;50.546;12.292;2023-06-26T02:14:10;16.20;99.90
36458;DHT22;22480;50.546;12.292;2023-06-26T02:16:37;16.10;99.90
36458;DHT22;22480;50.546;12.292;2023-06-26T02:19:03;16.00;99.90
36458;DHT22;22480;50.546;12.292;2023-06-26T02:21:28;15.90;99.90
36458;DHT22;22480;50.546;12.292;2023-06-26T02:23:55;15.90;99.90
36458;DHT22;22480;50.546;12.292;2023-06-26T02:26:21;15.90;99.90
36458;DHT22;22480;50.546;12.292;2023-06-26T02:28:47;15.90;99.90
36458;DHT22;22480;50.546;12.292;2023-06-26T02:31:12;16.00;99.90
36458;DHT22;22480;50.546;12.292;2023-06-26T02:33:38;16.00;99.90
36458;DHT22;22480;50.546;12.292;2023-06-26T02:36:05;16.10;99.90
36458;DHT22;22480;50.546;12.292;2023-06-26T02:38:32;16.20;99.90
36458;DHT22;22480;50.546;12.292;2023-06-26T02:40:58;16.20;99.90
36458;DHT22;22480;50.546;12.292;2023-06-26T02:43:24;16.20;99.90
36458;DHT22;22480;50.546;12.292;2023-06-26T02:45:50;16.20;99.90
36458;DHT22;22480;50.546;12.292;2023-06-26T02:48:15;16.30;99.90
36458;DHT22;22480;50.546;12.292;2023-06-26T02:50:42;16.20;99.90
36458;DHT22;22480;50.546;12.292;2023-06-26T02:53:13;16.20;99.90
36458;DHT22;22480;50.546;12.292;2023-06-26T02:55:41;16.20;99.90
36458;DHT22;22480;50.546;12.292;2023-06-26T02:58:07;16.20;99.90
36458;DHT22;22480;50.546;12.292;2023-06-26T03:00:34;16.20;99.90
36458;DHT22;22480;50.546;12.292;2023-06-26T03:03:02;16.20;99.90
36458;DHT22;22480;50.546;12.292;2023-06-26T03:05:29;16.20;99.90
36458;DHT22;22480;50.546;12.292;2023-06-26T03:07:55;16.20;99.90
36458;DHT22;22480;50.546;12.292;2023-06-26T03:10:21;16.10;99.90
36458;DHT22;22480;50.546;12.292;2023-06-26T03:12:47;16.10;99.90
36458;DHT22;22480;50.546;12.292;2023-06-26T03:15:14;16.20;99.90
36458;DHT22;22480;50.546;12.292;2023-06-26T03:17:40;16.20;99.90
36458;DHT22;22480;50.546;12.292;2023-06-26T03:20:12;16.20;99.90
36458;DHT22;22480;50.546;12.292;2023-06-26T03:22:46;16.20;99.90
36458;DHT22;22480;50.546;12.292;2023-06-26T03:25:12;16.20;99.90
36458;DHT22;22480;50.546;12.292;2023-06-26T03:27:38;16.30;99.90
36458;DHT22;22480;50.546;12.292;2023-06-26T03:30:05;16.30;99.90
36458;DHT22;22480;50.546;12.292;2023-06-26T03:32:33;16.30;99.90
36458;DHT22;22480;50.546;12.292;2023-06-26T03:34:59;16.30;99.90
36458;DHT22;22480;50.546;12.292;2023-06-26T03:37:29;16.30;99.90
36458;DHT22;22480;50.546;12.292;2023-06-26T03:39:54;16.30;99.90
36458;DHT22;22480;50.546;12.292;2023-06-26T03:42:21;16.30;99.90
36458;DHT22;22480;50.546;12.292;2023-06-26T03:44:46;16.30;99.90
36458;DHT22;22480;50.546;12.292;2023-06-26T03:47:13;16.30;99.90
36458;DHT22;22480;50.546;12.292;2023-06-26T03:49:39;16.30;99.90
36458;DHT22;22480;50.546;12.292;2023-06-26T03:52:05;16.30;99.90
36458;DHT22;22480;50.546;12.292;2023-06-26T03:54:31;16.30;99.90
36458;DHT22;22480;50.546;12.292;2023-06-26T03:56:59;16.40;99.90
36458;DHT22;22480;50.546;12.292;2023-06-26T03:59:25;16.40;99.90
36458;DHT22;22480;50.546;12.292;2023-06-26T04:01:51;16.40;99.90
36458;DHT22;22480;50.546;12.292;2023-06-26T04:04:17;16.50;99.90
36458;DHT22;22480;50.546;12.292;2023-06-26T04:06:42;16.50;99.90
36458;DHT22;22480;50.546;12.292;2023-06-26T04:09:08;16.50;99.90
36458;DHT22;22480;50.546;12.292;2023-06-26T04:11:34;16.60;99.90
36458;DHT22;22480;50.546;12.292;2023-06-26T04:13:59;16.70;99.90
36458;DHT22;22480;50.546;12.292;2023-06-26T04:16:25;16.70;99.90
36458;DHT22;22480;50.546;12.292;2023-06-26T04:18:52;16.70;99.90
36458;DHT22;22480;50.546;12.292;2023-06-26T04:21:18;16.80;99.90
36458;DHT22;22480;50.546;12.292;2023-06-26T04:23:45;16.90;99.90
36458;DHT22;22480;50.546;12.292;2023-06-26T04:26:11;17.20;99.90
36458;DHT22;22480;50.546;12.292;2023-06-26T04:28:40;17.80;99.90
36458;DHT22;22480;50.546;12.292;2023-06-26T04:31:06;18.60;99.90
36458;DHT22;22480;50.546;12.292;2023-06-26T04:33:32;19.30;99.90
36458;DHT22;22480;50.546;12.292;2023-06-26T04:35:57;19.70;99.90
36458;DHT22;22480;50.546;12.292;2023-06-26T04:38:23;20.00;99.90
36458;DHT22;22480;50.546;12.292;2023-06-26T04:40:49;20.00;99.90
36458;DHT22;22480;50.546;12.292;2023-06-26T04:43:15;19.90;99.90
36458;DHT22;22480;50.546;12.292;2023-06-26T04:45:41;19.60;99.90
36458;DHT22;22480;50.546;12.292;2023-06-26T04:48:06;19.50;99.90
36458;DHT22;22480;50.546;12.292;2023-06-26T04:50:32;19.60;99.90
36458;DHT22;22480;50.546;12.292;2023-06-26T04:52:59;20.20;99.90
36458;DHT22;22480;50.546;12.292;2023-06-26T04:55:25;20.80;99.90
36458;DHT22;22480;50.546;12.292;2023-06-26T04:57:51;21.40;99.90
36458;DHT22;22480;50.546;12.292;2023-06-26T05:00:17;21.90;99.90
36458;DHT22;22480;50.546;12.292;2023-06-26T05:02:43;22.40;99.90
36458;DHT22;22480;50.546;12.292;2023-06-26T05:05:09;22.70;99.90
36458;DHT22;22480;50.546;12.292;2023-06-26T05:07:36;22.80;99.90
36458;DHT22;22480;50.546;12.292;2023-06-26T05:10:02;23.20;99.90
36458;DHT22;22480;50.546;12.292;2023-06-26T05:12:28;23.50;97.80
36458;DHT22;22480;50.546;12.292;2023-06-26T05:14:53;23.70;95.80
36458;DHT22;22480;50.546;12.292;2023-06-26T05:17:19;23.80;96.40
36458;DHT22;22480;50.546;12.292;2023-06-26T05:19:45;23.90;93.20
36458;DHT22;22480;50.546;12.292;2023-06-26T05:22:12;24.10;93.10
36458;DHT22;22480;50.546;12.292;2023-06-26T05:24:39;24.20;93.00
36458;DHT22;22480;50.546;12.292;2023-06-26T05:27:05;24.30;90.00
36458;DHT22;22480;50.546;12.292;2023-06-26T05:29:32;24.40;89.10
36458;DHT22;22480;50.546;12.292;2023-06-26T05:31:58;24.60;87.50
36458;DHT22;22480;50.546;12.292;2023-06-26T05:34:24;24.80;87.00
36458;DHT22;22480;50.546;12.292;2023-06-26T05:36:51;25.00;85.00
36458;DHT22;22480;50.546;12.292;2023-06-26T05:39:18;25.00;86.00
36458;DHT22;22480;50.546;12.292;2023-06-26T05:41:44;25.20;82.10
36458;DHT22;22480;50.546;12.292;2023-06-26T05:44:10;25.40;81.00
36458;DHT22;22480;50.546;12.292;2023-06-26T05:46:36;25.40;83.30
36458;DHT22;22480;50.546;12.292;2023-06-26T05:49:02;25.40;81.80
36458;DHT22;22480;50.546;12.292;2023-06-26T05:51:28;25.60;81.00
36458;DHT22;22480;50.546;12.292;2023-06-26T05:53:54;25.80;79.70
36458;DHT22;22480;50.546;12.292;2023-06-26T05:56:20;26.10;77.70
36458;DHT22;22480;50.546;12.292;2023-06-26T05:58:47;26.30;73.50
36458;DHT22;22480;50.546;12.292;2023-06-26T06:01:12;26.60;69.50
36458;DHT22;22480;50.546;12.292;2023-06-26T06:03:39;26.60;69.00
36458;DHT22;22480;50.546;12.292;2023-06-26T06:06:05;26.70;68.80
36458;DHT22;22480;50.546;12.292;2023-06-26T06:08:31;26.90;70.10
36458;DHT22;22480;50.546;12.292;2023-06-26T06:10:57;27.00;68.00
36458;DHT22;22480;50.546;12.292;2023-06-26T06:13:23;27.20;66.80
36458;DHT22;22480;50.546;12.292;2023-06-26T06:15:49;27.40;64.00
36458;DHT22;22480;50.546;12.292;2023-06-26T06:18:14;27.70;63.20
36458;DHT22;22480;50.546;12.292;2023-06-26T06:20:40;27.50;62.80
36458;DHT22;22480;50.546;12.292;2023-06-26T06:23:06;27.40;62.80
36458;DHT22;22480;50.546;12.292;2023-06-26T06:25:31;27.20;62.20
36458;DHT22;22480;50.546;12.292;2023-06-26T06:27:57;27.00;63.00
36458;DHT22;22480;50.546;12.292;2023-06-26T06:30:23;27.10;63.60
36458;DHT22;22480;50.546;12.292;2023-06-26T06:32:49;27.30;62.00
36458;DHT22;22480;50.546;12.292;2023-06-26T06:35:20;27.30;60.70
36458;DHT22;22480;50.546;12.292;2023-06-26T06:37:45;27.40;59.90
36458;DHT22;22480;50.546;12.292;2023-06-26T06:40:12;27.40;61.60
36458;DHT22;22480;50.546;12.292;2023-06-26T06:42:38;27.40;59.90
36458;DHT22;22480;50.546;12.292;2023-06-26T06:45:04;27.40;58.10
36458;DHT22;22480;50.546;12.292;2023-06-26T06:47:34;27.70;59.50
36458;DHT22;22480;50.546;12.292;2023-06-26T06:50:00;27.70;58.20
36458;DHT22;22480;50.546;12.292;2023-06-26T06:52:42;27.40;58.40
36458;DHT22;22480;50.546;12.292;2023-06-26T06:55:09;27.40;57.60
36458;DHT22;22480;50.546;12.292;2023-06-26T06:57:36;27.40;58.00
36458;DHT22;22480;50.546;12.292;2023-06-26T07:00:08;27.20;59.40
36458;DHT22;22480;50.546;12.292;2023-06-26T07:02:35;27.10;58.30
36458;DHT22;22480;50.546;12.292;2023-06-26T07:05:02;27.20;58.50
36458;DHT22;22480;50.546;12.292;2023-06-26T07:07:30;27.50;58.10
36458;DHT22;22480;50.546;12.292;2023-06-26T07:10:00;27.40;58.60
36458;DHT22;22480;50.546;12.292;2023-06-26T07:12:25;27.50;60.70
36458;DHT22;22480;50.546;12.292;2023-06-26T07:14:51;27.80;58.90
36458;DHT22;22480;50.546;12.292;2023-06-26T07:17:17;27.70;58.60
36458;DHT22;22480;50.546;12.292;2023-06-26T07:19:43;27.80;60.60
36458;DHT22;22480;50.546;12.292;2023-06-26T07:22:08;27.90;59.20
36458;DHT22;22480;50.546;12.292;2023-06-26T07:24:34;28.00;57.30
36458;DHT22;22480;50.546;12.292;2023-06-26T07:27:00;28.20;58.00
36458;DHT22;22480;50.546;12.292;2023-06-26T07:29:26;28.30;58.10
36458;DHT22;22480;50.546;12.292;2023-06-26T07:31:52;28.40;58.20
36458;DHT22;22480;50.546;12.292;2023-06-26T07:34:17;28.40;58.10
36458;DHT22;22480;50.546;12.292;2023-06-26T07:36:43;28.10;57.20
36458;DHT22;22480;50.546;12.292;2023-06-26T07:39:09;27.80;59.30
36458;DHT22;22480;50.546;12.292;2023-06-26T07:41:34;27.60;59.00
36458;DHT22;22480;50.546;12.292;2023-06-26T07:44:00;27.60;59.90
36458;DHT22;22480;50.546;12.292;2023-06-26T07:46:26;27.50;60.30
36458;DHT22;22480;50.546;12.292;2023-06-26T07:48:51;27.70;61.20
36458;DHT22;22480;50.546;12.292;2023-06-26T07:51:17;27.70;61.40
36458;DHT22;22480;50.546;12.292;2023-06-26T07:53:43;27.60;62.10
36458;DHT22;22480;50.546;12.292;2023-06-26T07:56:08;27.70;61.40
36458;DHT22;22480;50.546;12.292;2023-06-26T07:58:34;27.90;61.50
36458;DHT22;22480;50.546;12.292;2023-06-26T08:01:00;27.90;61.60
36458;DHT22;22480;50.546;12.292;2023-06-26T08:03:25;27.80;60.30
36458;DHT22;22480;50.546;12.292;2023-06-26T08:05:52;27.80;60.70
36458;DHT22;22480;50.546;12.292;2023-06-26T08:08:17;27.80;61.40
36458;DHT22;22480;50.546;12.292;2023-06-26T08:10:43;27.90;60.60
36458;DHT22;22480;50.546;12.292;2023-06-26T08:13:09;28.20;61.20
36458;DHT22;22480;50.546;12.292;2023-06-26T08:15:35;28.30;60.80
36458;DHT22;22480;50.546;12.292;2023-06-26T08:18:01;28.60;58.60
36458;DHT22;22480;50.546;12.292;2023-06-26T08:20:27;28.60;60.00
36458;DHT22;22480;50.546;12.292;2023-06-26T08:22:53;28.80;58.00
36458;DHT22;22480;50.546;12.292;2023-06-26T08:25:20;28.90;56.70
36458;DHT22;22480;50.546;12.292;2023-06-26T08:27:46;28.80;57.00
36458;DHT22;22480;50.546;12.292;2023-06-26T08:30:12;28.80;56.10
36458;DHT22;22480;50.546;12.292;2023-06-26T08:32:39;28.80;57.10
36458;DHT22;22480;50.546;12.292;2023-06-26T08:35:06;28.80;57.60
36458;DHT22;22480;50.546;12.292;2023-06-26T08:37:32;29.10;55.90
36458;DHT22;22480;50.546;12.292;2023-06-26T08:40:02;29.20;55.40
36458;DHT22;22480;50.546;12.292;2023-06-26T08:42:27;29.30;55.10
36458;DHT22;22480;50.546;12.292;2023-06-26T08:44:53;29.30;56.60
36458;DHT22;22480;50.546;12.292;2023-06-26T08:47:19;29.50;56.60
36458;DHT22;22480;50.546;12.292;2023-06-26T08:49:59;29.80;55.30
36458;DHT22;22480;50.546;12.292;2023-06-26T08:52:33;29.80;54.90
36458;DHT22;22480;50.546;12.292;2023-06-26T08:55:02;29.50;55.20
36458;DHT22;22480;50.546;12.292;2023-06-26T08:57:30;29.60;55.50
36458;DHT22;22480;50.546;12.292;2023-06-26T08:59:58;29.70;53.40
36458;DHT22;22480;50.546;12.292;2023-06-26T09:02:24;29.50;53.40
36458;DHT22;22480;50.546;12.292;2023-06-26T09:04:50;29.50;55.30
36458;DHT22;22480;50.546;12.292;2023-06-26T09:07:16;29.50;54.60
36458;DHT22;22480;50.546;12.292;2023-06-26T09:09:42;29.70;54.40
36458;DHT22;22480;50.546;12.292;2023-06-26T09:12:09;30.00;53.70
36458;DHT22;22480;50.546;12.292;2023-06-26T09:14:37;30.00;53.70
36458;DHT22;22480;50.546;12.292;2023-06-26T09:17:03;30.10;51.20
36458;DHT22;22480;50.546;12.292;2023-06-26T09:19:28;30.00;54.40
36458;DHT22;22480;50.546;12.292;2023-06-26T09:21:54;30.10;52.50
36458;DHT22;22480;50.546;12.292;2023-06-26T09:24:21;30.10;52.40
36458;DHT22;22480;50.546;12.292;2023-06-26T09:26:48;30.60;52.00
36458;DHT22;22480;50.546;12.292;2023-06-26T09:29:15;30.30;51.50
36458;DHT22;22480;50.546;12.292;2023-06-26T09:31:44;30.10;53.20
36458;DHT22;22480;50.546;12.292;2023-06-26T09:34:09;30.10;51.90
36458;DHT22;22480;50.546;12.292;2023-06-26T09:36:36;30.10;52.30
36458;DHT22;22480;50.546;12.292;2023-06-26T09:39:03;30.40;49.60
36458;DHT22;22480;50.546;12.292;2023-06-26T09:41:36;30.50;51.70
36458;DHT22;22480;50.546;12.292;2023-06-26T09:44:04;30.30;49.90
36458;DHT22;22480;50.546;12.292;2023-06-26T09:46:31;30.30;50.20
36458;DHT22;22480;50.546;12.292;2023-06-26T09:49:08;30.50;50.50
36458;DHT22;22480;50.546;12.292;2023-06-26T09:51:35;30.70;52.30
36458;DHT22;22480;50.546;12.292;2023-06-26T09:54:01;30.70;49.70
36458;DHT22;22480;50.546;12.292;2023-06-26T09:56:28;30.90;50.00
36458;DHT22;22480;50.546;12.292;2023-06-26T09:59:05;31.30;49.30
36458;DHT22;22480;50.546;12.292;2023-06-26T10:01:32;31.50;49.70
36458;DHT22;22480;50.546;12.292;2023-06-26T10:03:58;31.50;47.50
36458;DHT22;22480;50.546;12.292;2023-06-26T10:06:45;31.50;49.90
36458;DHT22;22480;50.546;12.292;2023-06-26T10:09:13;31.50;49.40
36458;DHT22;22480;50.546;12.292;2023-06-26T10:11:48;31.60;48.90
36458;DHT22;22480;50.546;12.292;2023-06-26T10:14:16;31.50;50.80
36458;DHT22;22480;50.546;12.292;2023-06-26T10:16:43;31.50;50.20
36458;DHT22;22480;50.546;12.292;2023-06-26T10:19:10;31.50;49.00
36458;DHT22;22480;50.546;12.292;2023-06-26T10:21:38;31.50;49.40
36458;DHT22;22480;50.546;12.292;2023-06-26T10:24:06;31.50;49.10
36458;DHT22;22480;50.546;12.292;2023-06-26T10:26:36;31.50;49.00
36458;DHT22;22480;50.546;12.292;2023-06-26T10:29:03;31.70;49.50
36458;DHT22;22480;50.546;12.292;2023-06-26T10:31:31;31.50;48.90
36458;DHT22;22480;50.546;12.292;2023-06-26T10:33:57;31.70;49.10
36458;DHT22;22480;50.546;12.292;2023-06-26T10:36:31;31.70;50.60
36458;DHT22;22480;50.546;12.292;2023-06-26T10:39:04;31.90;48.10
36458;DHT22;22480;50.546;12.292;2023-06-26T10:41:40;32.00;48.20
36458;DHT22;22480;50.546;12.292;2023-06-26T10:44:16;32.20;46.80
36458;DHT22;22480;50.546;12.292;2023-06-26T10:46:52;32.70;47.70
36458;DHT22;22480;50.546;12.292;2023-06-26T10:49:20;32.80;47.10
36458;DHT22;22480;50.546;12.292;2023-06-26T10:51:47;32.70;47.30
36458;DHT22;22480;50.546;12.292;2023-06-26T10:54:17;32.70;47.50
36458;DHT22;22480;50.546;12.292;2023-06-26T10:56:45;32.50;49.00
36458;DHT22;22480;50.546;12.292;2023-06-26T10:59:14;32.50;47.60
36458;DHT22;22480;50.546;12.292;2023-06-26T11:01:41;32.70;47.50
36458;DHT22;22480;50.546;12.292;2023-06-26T11:04:10;32.70;48.40
36458;DHT22;22480;50.546;12.292;2023-06-26T11:06:37;32.80;47.20
36458;DHT22;22480;50.546;12.292;2023-06-26T11:09:09;32.60;47.80
36458;DHT22;22480;50.546;12.292;2023-06-26T11:14:24;32.70;47.20
36458;DHT22;22480;50.546;12.292;2023-06-26T11:16:51;32.60;46.10
36458;DHT22;22480;50.546;12.292;2023-06-26T11:19:18;32.50;46.80
36458;DHT22;22480;50.546;12.292;2023-06-26T11:21:44;33.00;48.20
36458;DHT22;22480;50.546;12.292;2023-06-26T11:24:12;33.50;46.70
36458;DHT22;22480;50.546;12.292;2023-06-26T11:26:42;33.70;48.00
36458;DHT22;22480;50.546;12.292;2023-06-26T11:29:09;33.90;47.80
36458;DHT22;22480;50.546;12.292;2023-06-26T11:31:36;34.30;45.50
36458;DHT22;22480;50.546;12.292;2023-06-26T11:34:05;34.30;45.90
36458;DHT22;22480;50.546;12.292;2023-06-26T11:36:31;34.20;46.10
36458;DHT22;22480;50.546;12.292;2023-06-26T11:38:59;34.30;45.90
36458;DHT22;22480;50.546;12.292;2023-06-26T11:41:30;34.20;46.30
36458;DHT22;22480;50.546;12.292;2023-06-26T11:43:56;34.00;46.30
36458;DHT22;22480;50.546;12.292;2023-06-26T11:46:25;34.00;45.90
36458;DHT22;22480;50.546;12.292;2023-06-26T11:48:51;34.40;45.70
36458;DHT22;22480;50.546;12.292;2023-06-26T11:51:17;34.10;44.90
36458;DHT22;22480;50.546;12.292;2023-06-26T11:53:44;34.10;45.70
36458;DHT22;22480;50.546;12.292;2023-06-26T11:56:11;33.90;46.50
36458;DHT22;22480;50.546;12.292;2023-06-26T11:58:54;34.00;46.80
36458;DHT22;22480;50.546;12.292;2023-06-26T12:01:20;34.50;45.50
36458;DHT22;22480;50.546;12.292;2023-06-26T12:03:49;34.40;45.70
36458;DHT22;22480;50.546;12.292;2023-06-26T12:06:15;34.20;45.00
36458;DHT22;22480;50.546;12.292;2023-06-26T12:08:41;34.20;45.40
36458;DHT22;22480;50.546;12.292;2023-06-26T12:11:07;34.10;45.40
36458;DHT22;22480;50.546;12.292;2023-06-26T12:13:34;34.00;45.10
36458;DHT22;22480;50.546;12.292;2023-06-26T12:16:00;34.30;44.80
36458;DHT22;22480;50.546;12.292;2023-06-26T12:18:25;34.50;45.10
36458;DHT22;22480;50.546;12.292;2023-06-26T12:20:52;34.40;44.40
36458;DHT22;22480;50.546;12.292;2023-06-26T12:23:18;34.50;45.30
36458;DHT22;22480;50.546;12.292;2023-06-26T12:25:43;34.80;45.40
36458;DHT22;22480;50.546;12.292;2023-06-26T12:28:18;34.90;45.10
36458;DHT22;22480;50.546;12.292;2023-06-26T12:31:11;35.10;43.60
36458;DHT22;22480;50.546;12.292;2023-06-26T12:33:33;35.40;44.10
36458;DHT22;22480;50.546;12.292;2023-06-26T12:35:59;35.20;43.70
36458;DHT22;22480;50.546;12.292;2023-06-26T12:38:33;35.30;43.30
36458;DHT22;22480;50.546;12.292;2023-06-26T12:40:58;35.20;41.60
36458;DHT22;22480;50.546;12.292;2023-06-26T12:43:26;35.40;43.10
36458;DHT22;22480;50.546;12.292;2023-06-26T12:45:55;35.20;44.60
36458;DHT22;22480;50.546;12.292;2023-06-26T12:48:22;35.00;42.20
36458;DHT22;22480;50.546;12.292;2023-06-26T12:51:08;34.60;43.50
36458;DHT22;22480;50.546;12.292;2023-06-26T12:53:34;34.50;43.70
36458;DHT22;22480;50.546;12.292;2023-06-26T12:56:00;34.80;41.70
36458;DHT22;22480;50.546;12.292;2023-06-26T12:58:25;35.40;42.40
36458;DHT22;22480;50.546;12.292;2023-06-26T13:00:51;35.10;42.00
36458;DHT22;22480;50.546;12.292;2023-06-26T13:03:19;34.80;40.70
36458;DHT22;22480;50.546;12.292;2023-06-26T13:05:46;34.90;41.50
36458;DHT22;22480;50.546;12.292;2023-06-26T13:08:12;35.10;42.20
36458;DHT22;22480;50.546;12.292;2023-06-26T13:10:38;35.60;41.00
36458;DHT22;22480;50.546;12.292;2023-06-26T13:13:05;35.50;42.20
36458;DHT22;22480;50.546;12.292;2023-06-26T13:15:31;35.00;42.50
36458;DHT22;22480;50.546;12.292;2023-06-26T13:17:56;35.10;41.70
36458;DHT22;22480;50.546;12.292;2023-06-26T13:20:22;34.90;41.70
36458;DHT22;22480;50.546;12.292;2023-06-26T13:22:48;35.00;43.10
36458;DHT22;22480;50.546;12.292;2023-06-26T13:25:13;35.10;41.20
36458;DHT22;22480;50.546;12.292;2023-06-26T13:27:39;34.90;42.70
36458;DHT22;22480;50.546;12.292;2023-06-26T13:30:06;35.10;42.70
36458;DHT22;22480;50.546;12.292;2023-06-26T13:32:31;35.30;41.90
36458;DHT22;22480;50.546;12.292;2023-06-26T13:34:57;35.40;44.00
36458;DHT22;22480;50.546;12.292;2023-06-26T13:37:24;35.70;42.50
36458;DHT22;22480;50.546;12.292;2023-06-26T13:39:49;36.00;43.30
36458;DHT22;22480;50.546;12.292;2023-06-26T13:42:17;36.70;41.70
36458;DHT22;22480;50.546;12.292;2023-06-26T13:44:43;37.30;41.40
36458;DHT22;22480;50.546;12.292;2023-06-26T13:47:13;37.90;40.40
36458;DHT22;22480;50.546;12.292;2023-06-26T13:49:38;37.80;41.20
36458;DHT22;22480;50.546;12.292;2023-06-26T13:52:05;37.40;40.00
36458;DHT22;22480;50.546;12.292;2023-06-26T13:54:35;37.20;41.40
36458;DHT22;22480;50.546;12.292;2023-06-26T13:57:01;37.30;41.50
36458;DHT22;22480;50.546;12.292;2023-06-26T13:59:28;36.40;40.70
36458;DHT22;22480;50.546;12.292;2023-06-26T14:01:54;35.80;41.80
36458;DHT22;22480;50.546;12.292;2023-06-26T14:04:20;35.60;42.50
36458;DHT22;22480;50.546;12.292;2023-06-26T14:06:46;35.20;42.20
36458;DHT22;22480;50.546;12.292;2023-06-26T14:09:12;35.70;43.10
36458;DHT22;22480;50.546;12.292;2023-06-26T14:11:37;36.20;44.60
36458;DHT22;22480;50.546;12.292;2023-06-26T14:14:03;37.00;42.30
36458;DHT22;22480;50.546;12.292;2023-06-26T14:16:29;37.00;42.50
36458;DHT22;22480;50.546;12.292;2023-06-26T14:18:55;36.50;42.20
36458;DHT22;22480;50.546;12.292;2023-06-26T14:21:21;35.00;43.40
36458;DHT22;22480;50.546;12.292;2023-06-26T14:23:47;34.10;44.80
36458;DHT22;22480;50.546;12.292;2023-06-26T14:26:12;34.30;44.80
36458;DHT22;22480;50.546;12.292;2023-06-26T14:28:39;34.10;45.50
36458;DHT22;22480;50.546;12.292;2023-06-26T14:31:05;33.60;46.50
36458;DHT22;22480;50.546;12.292;2023-06-26T14:33:31;33.50;46.50
36458;DHT22;22480;50.546;12.292;2023-06-26T14:35:56;33.50;45.60
36458;DHT22;22480;50.546;12.292;2023-06-26T14:38:22;33.70;46.00
36458;DHT22;22480;50.546;12.292;2023-06-26T14:40:47;33.50;45.80
36458;DHT22;22480;50.546;12.292;2023-06-26T14:43:13;32.70;47.80
36458;DHT22;22480;50.546;12.292;2023-06-26T14:45:39;31.70;48.50
36458;DHT22;22480;50.546;12.292;2023-06-26T14:48:05;31.10;49.60
36458;DHT22;22480;50.546;12.292;2023-06-26T14:50:30;30.70;50.40
36458;DHT22;22480;50.546;12.292;2023-06-26T14:52:56;30.50;51.20
36458;DHT22;22480;50.546;12.292;2023-06-26T14:55:22;30.10;50.50
36458;DHT22;22480;50.546;12.292;2023-06-26T14:57:47;29.90;51.90
36458;DHT22;22480;50.546;12.292;2023-06-26T15:00:14;29.90;51.60
36458;DHT22;22480;50.546;12.292;2023-06-26T15:02:40;29.70;52.40
36458;DHT22;22480;50.546;12.292;2023-06-26T15:05:08;29.60;52.60
36458;DHT22;22480;50.546;12.292;2023-06-26T15:07:34;29.40;53.40
36458;DHT22;22480;50.546;12.292;2023-06-26T15:10:00;29.30;54.20
36458;DHT22;22480;50.546;12.292;2023-06-26T15:12:25;29.10;53.60
36458;DHT22;22480;50.546;12.292;2023-06-26T15:14:52;28.70;55.60
36458;DHT22;22480;50.546;12.292;2023-06-26T15:17:18;28.20;57.40
36458;DHT22;22480;50.546;12.292;2023-06-26T15:19:44;28.10;59.10
36458;DHT22;22480;50.546;12.292;2023-06-26T15:22:10;29.10;59.50